createdAt,value
2022-08-07T00:00:25.893Z,16.78
2022-08-07T00:02:53.969Z,16.77
2022-08-07T00:05:23.724Z,16.75
2022-08-07T00:08:00.303Z,16.72
2022-08-07T00:10:31.434Z,16.67
2022-08-07T00:13:09.734Z,16.61
2022-08-07T00:15:51.432Z,16.55
2022-08-07T00:18:24.097Z,16.51
2022-08-07T00:20:55.028Z,16.48
2022-08-07T00:23:28.292Z,16.46
2022-08-07T00:26:00.608Z,16.43
2022-08-07T00:28:31.509Z,16.40
2022-08-07T00:31:01.946Z,16.37
2022-08-07T00:33:34.150Z,16.35
2022-08-07T00:36:01.920Z,16.31
2022-08-07T00:38:33.260Z,16.27
2022-08-07T00:41:01.845Z,16.22
2022-08-07T00:43:59.568Z,16.17
2022-08-07T00:46:17.583Z,16.19
2022-08-07T00:48:45.657Z,16.18
2022-08-07T00:51:18.363Z,16.18
2022-08-07T00:53:50.743Z,16.18
2022-08-07T00:56:30.065Z,16.17
2022-08-07T00:58:59.358Z,16.15
2022-08-07T01:01:27.329Z,16.11
2022-08-07T01:04:00.310Z,16.07
2022-08-07T01:06:29.101Z,16.02
2022-08-07T01:09:01.196Z,15.99
2022-08-07T01:12:09.179Z,15.95
2022-08-07T01:14:17.296Z,15.92
2022-08-07T01:16:49.563Z,15.90
2022-08-07T01:19:19.723Z,15.86
2022-08-07T01:21:53.227Z,15.80
2022-08-07T01:24:23.912Z,15.75
2022-08-07T01:26:53.920Z,15.71
2022-08-07T01:29:24.140Z,15.68
2022-08-07T01:31:59.394Z,15.67
2022-08-07T01:34:30.870Z,15.61
2022-08-07T01:37:01.491Z,15.57
2022-08-07T01:39:40.614Z,15.56
2022-08-07T01:42:38.537Z,15.52
2022-08-07T01:44:57.363Z,15.46
2022-08-07T01:48:17.639Z,15.47
2022-08-07T01:50:14.195Z,15.46
2022-08-07T01:52:49.578Z,15.43
2022-08-07T01:55:26.511Z,15.43
2022-08-07T01:58:01.350Z,15.40
2022-08-07T02:00:35.168Z,15.42
2022-08-07T02:03:21.441Z,15.42
2022-08-07T02:06:00.051Z,15.39
2022-08-07T02:08:35.488Z,15.38
2022-08-07T02:11:05.664Z,15.38
2022-08-07T02:13:58.117Z,15.35
2022-08-07T02:16:29.910Z,15.31
2022-08-07T02:19:05.740Z,15.29
2022-08-07T02:21:56.740Z,15.25
2022-08-07T02:24:29.345Z,15.21
2022-08-07T02:26:58.765Z,15.18
2022-08-07T02:29:30.623Z,15.16
2022-08-07T02:32:00.210Z,15.06
2022-08-07T02:34:28.966Z,15.05
2022-08-07T02:36:59.855Z,15.00
2022-08-07T02:39:43.345Z,14.95
2022-08-07T02:42:19.728Z,14.90
2022-08-07T02:44:51.937Z,14.91
2022-08-07T02:47:20.179Z,14.91
2022-08-07T02:49:57.433Z,14.90
2022-08-07T02:52:33.437Z,14.89
2022-08-07T02:55:15.340Z,14.87
2022-08-07T02:58:00.011Z,14.82
2022-08-07T03:00:30.467Z,14.77
2022-08-07T03:02:59.628Z,14.75
2022-08-07T03:05:37.094Z,14.75
2022-08-07T03:08:10.553Z,14.70
2022-08-07T03:10:46.652Z,14.70
2022-08-07T03:13:15.499Z,14.66
2022-08-07T03:15:56.375Z,14.63
2022-08-07T03:18:34.881Z,14.54
2022-08-07T03:21:08.648Z,14.54
2022-08-07T03:24:18.462Z,14.51
2022-08-07T03:26:33.986Z,14.53
2022-08-07T03:29:03.447Z,14.51
2022-08-07T03:31:42.741Z,14.49
2022-08-07T03:34:18.556Z,14.47
2022-08-07T03:36:53.657Z,14.46
2022-08-07T03:39:46.266Z,14.44
2022-08-07T03:42:14.163Z,14.41
2022-08-07T03:44:42.468Z,14.38
2022-08-07T03:47:15.779Z,14.35
2022-08-07T03:49:47.788Z,14.31
2022-08-07T03:52:26.360Z,14.30
2022-08-07T03:54:59.089Z,14.29
2022-08-07T03:59:04.834Z,14.28
2022-08-07T04:00:30.190Z,14.26
2022-08-07T04:02:59.503Z,14.25
2022-08-07T04:05:39.709Z,14.23
2022-08-07T04:08:11.542Z,14.23
2022-08-07T04:10:42.246Z,14.23
2022-08-07T04:13:15.128Z,14.23
2022-08-07T04:15:45.607Z,14.22
2022-08-07T04:18:56.928Z,14.19
2022-08-07T04:21:07.082Z,14.22
2022-08-07T04:23:43.627Z,14.22
2022-08-07T04:26:23.713Z,14.21
2022-08-07T04:28:58.625Z,14.22
2022-08-07T04:31:38.777Z,14.21
2022-08-07T04:34:16.622Z,14.22
2022-08-07T04:36:45.363Z,14.22
2022-08-07T04:39:17.604Z,14.25
2022-08-07T04:41:50.422Z,14.29
2022-08-07T04:44:20.610Z,14.32
2022-08-07T04:47:04.742Z,14.36
2022-08-07T04:49:57.509Z,14.37
2022-08-07T04:52:35.306Z,14.37
2022-08-07T04:55:15.388Z,14.36
2022-08-07T04:58:14.419Z,14.39
2022-08-07T05:00:55.834Z,14.42
2022-08-07T05:03:59.734Z,14.45
2022-08-07T05:06:28.072Z,14.51
2022-08-07T05:09:03.730Z,14.57
2022-08-07T05:11:57.315Z,14.60
2022-08-07T05:14:55.284Z,14.65
2022-08-07T05:17:53.023Z,14.75
2022-08-07T05:20:14.607Z,14.91
2022-08-07T05:22:46.467Z,15.05
2022-08-07T05:25:25.546Z,15.16
2022-08-07T05:28:20.120Z,15.28
2022-08-07T05:30:52.289Z,15.46
2022-08-07T05:33:23.269Z,15.58
2022-08-07T05:35:52.822Z,15.67
2022-08-07T05:38:58.338Z,15.71
2022-08-07T05:41:12.241Z,15.74
2022-08-07T05:44:07.724Z,15.77
2022-08-07T05:46:32.811Z,15.81
2022-08-07T05:49:12.115Z,15.85
2022-08-07T05:51:42.448Z,15.90
2022-08-07T05:54:29.827Z,15.95
2022-08-07T05:56:59.687Z,16.02
2022-08-07T05:59:28.498Z,16.08
2022-08-07T06:02:07.970Z,16.18
2022-08-07T06:04:42.919Z,16.29
2022-08-07T06:07:23.176Z,16.37
2022-08-07T06:10:15.083Z,16.46
2022-08-07T06:12:43.231Z,16.54
2022-08-07T06:15:16.053Z,16.68
2022-08-07T06:17:53.795Z,16.84
2022-08-07T06:20:31.928Z,16.83
2022-08-07T06:23:45.827Z,16.88
2022-08-07T06:26:02.114Z,16.99
2022-08-07T06:28:29.831Z,17.12
2022-08-07T06:30:58.557Z,17.17
2022-08-07T06:33:27.456Z,17.26
2022-08-07T06:36:12.295Z,17.40
2022-08-07T06:38:58.522Z,17.52
2022-08-07T06:42:01.116Z,17.58
2022-08-07T06:44:22.642Z,17.60
2022-08-07T06:46:53.750Z,17.60
2022-08-07T06:49:51.936Z,17.65
2022-08-07T06:52:35.340Z,17.81
2022-08-07T06:55:34.502Z,17.90
2022-08-07T06:57:59.888Z,17.92
2022-08-07T07:00:28.953Z,18.02
2022-08-07T07:03:01.135Z,18.12
2022-08-07T07:06:05.554Z,18.26
2022-08-07T07:08:28.584Z,18.35
2022-08-07T07:10:57.839Z,18.46
2022-08-07T07:13:55.984Z,18.55
2022-08-07T07:16:27.190Z,18.63
2022-08-07T07:19:11.480Z,18.72
2022-08-07T07:22:05.122Z,18.78
2022-08-07T07:25:02.810Z,18.89
2022-08-07T07:27:35.547Z,18.97
2022-08-07T07:30:37.950Z,19.09
2022-08-07T07:33:09.001Z,19.24
2022-08-07T07:35:51.831Z,19.38
2022-08-07T07:38:31.701Z,19.52
2022-08-07T07:41:04.913Z,19.60
2022-08-07T07:44:14.158Z,19.62
2022-08-07T07:46:38.000Z,19.61
2022-08-07T07:50:35.564Z,19.63
2022-08-07T07:52:10.228Z,19.68
2022-08-07T07:54:39.986Z,19.77
2022-08-07T07:57:43.708Z,19.90
2022-08-07T08:00:12.279Z,20.02
2022-08-07T08:03:04.547Z,20.14
2022-08-07T08:05:50.603Z,20.31
2022-08-07T08:08:34.741Z,20.45
2022-08-07T08:11:08.232Z,20.48
2022-08-07T08:13:54.905Z,20.45
2022-08-07T08:16:29.775Z,20.58
2022-08-07T08:19:17.823Z,20.69
2022-08-07T08:22:08.136Z,20.77
2022-08-07T08:25:18.133Z,20.78
2022-08-07T08:27:56.911Z,20.78
2022-08-07T08:30:28.694Z,20.83
2022-08-07T08:33:01.613Z,20.90
2022-08-07T08:35:39.541Z,21.00
2022-08-07T08:38:17.219Z,21.14
2022-08-07T08:40:50.364Z,21.30
2022-08-07T08:43:42.221Z,21.42
2022-08-07T08:46:22.010Z,21.46
2022-08-07T08:49:09.841Z,21.41
2022-08-07T08:52:12.872Z,21.44
2022-08-07T08:54:39.535Z,21.54
2022-08-07T08:57:16.350Z,21.71
2022-08-07T08:59:51.712Z,21.74
2022-08-07T09:02:36.394Z,21.62
2022-08-07T09:05:24.929Z,21.70
2022-08-07T09:08:05.747Z,21.84
2022-08-07T09:10:38.948Z,22.00
2022-08-07T09:13:20.475Z,22.11
2022-08-07T09:16:23.066Z,22.17
2022-08-07T09:19:51.133Z,22.14
2022-08-07T09:24:27.311Z,22.20
2022-08-07T09:25:17.624Z,22.34
2022-08-07T09:28:01.128Z,22.35
2022-08-07T09:30:38.740Z,22.22
2022-08-07T09:33:24.325Z,22.03
2022-08-07T09:36:15.716Z,21.95
2022-08-07T09:38:53.982Z,21.97
2022-08-07T09:41:36.437Z,21.89
2022-08-07T09:44:32.882Z,21.78
2022-08-07T09:47:51.947Z,21.75
2022-08-07T09:50:19.507Z,21.87
2022-08-07T09:52:54.103Z,22.12
2022-08-07T09:55:29.948Z,22.27
2022-08-07T09:58:33.726Z,22.41
2022-08-07T10:01:51.545Z,22.39
2022-08-07T10:04:33.155Z,22.49
2022-08-07T10:07:31.630Z,22.66
2022-08-07T10:10:21.843Z,22.85
2022-08-07T10:13:29.563Z,22.81
2022-08-07T10:16:11.208Z,22.87
2022-08-07T10:18:55.102Z,22.99
2022-08-07T10:22:13.990Z,23.17
2022-08-07T10:24:51.705Z,23.15
2022-08-07T10:27:45.870Z,23.13
2022-08-07T10:30:18.985Z,23.17
2022-08-07T10:33:17.544Z,23.13
2022-08-07T10:36:05.524Z,22.99
2022-08-07T10:38:51.041Z,22.89
2022-08-07T10:41:47.305Z,23.09
2022-08-07T10:44:33.728Z,23.30
2022-08-07T10:47:16.852Z,23.43
2022-08-07T10:49:51.883Z,23.50
2022-08-07T10:52:31.939Z,23.24
2022-08-07T10:55:32.428Z,23.40
2022-08-07T10:58:14.098Z,23.50
2022-08-07T11:00:56.468Z,23.65
2022-08-07T11:03:37.348Z,23.84
2022-08-07T11:06:27.121Z,23.90
2022-08-07T11:09:02.928Z,23.97
2022-08-07T11:11:37.668Z,24.04
2022-08-07T11:14:45.607Z,24.12
2022-08-07T11:17:09.178Z,24.24
2022-08-07T11:19:46.828Z,24.30
2022-08-07T11:22:33.271Z,24.31
2022-08-07T11:25:14.978Z,24.32
2022-08-07T11:28:02.092Z,24.34
2022-08-07T11:30:41.731Z,24.18
2022-08-07T11:33:54.207Z,24.15
2022-08-07T11:36:20.436Z,24.05
2022-08-07T11:39:07.271Z,24.18
2022-08-07T11:42:02.421Z,24.26
2022-08-07T11:44:52.049Z,24.46
2022-08-07T11:47:38.682Z,24.59
2022-08-07T11:50:35.085Z,24.59
2022-08-07T11:53:21.908Z,24.62
2022-08-07T11:56:27.580Z,24.70
2022-08-07T11:59:22.080Z,24.72
2022-08-07T12:02:20.723Z,24.82
2022-08-07T12:05:09.006Z,24.96
2022-08-07T12:07:53.687Z,25.03
2022-08-07T12:10:41.877Z,24.87
2022-08-07T12:13:17.097Z,24.75
2022-08-07T12:16:05.632Z,24.63
2022-08-07T12:18:45.109Z,24.72
2022-08-07T12:21:55.038Z,24.72
2022-08-07T12:24:37.729Z,24.89
2022-08-07T12:27:16.302Z,25.00
2022-08-07T12:30:03.205Z,25.16
2022-08-07T12:32:36.947Z,25.31
2022-08-07T12:35:11.918Z,25.30
2022-08-07T12:38:11.323Z,25.29
2022-08-07T12:40:47.654Z,25.31
2022-08-07T12:44:04.498Z,25.33
2022-08-07T12:46:26.488Z,25.18
2022-08-07T12:49:39.743Z,24.93
2022-08-07T12:52:14.362Z,24.64
2022-08-07T12:54:54.273Z,24.58
2022-08-07T12:57:59.503Z,24.72
2022-08-07T13:00:20.854Z,24.47
2022-08-07T13:03:27.060Z,24.29
2022-08-07T13:06:21.973Z,24.48
2022-08-07T13:09:33.387Z,24.78
2022-08-07T13:12:02.123Z,24.94
2022-08-07T13:14:46.768Z,25.09
2022-08-07T13:17:39.831Z,25.18
2022-08-07T13:20:15.277Z,25.41
2022-08-07T13:22:52.455Z,25.36
2022-08-07T13:25:30.633Z,25.34
2022-08-07T13:28:11.410Z,25.50
2022-08-07T13:30:53.401Z,25.65
2022-08-07T13:34:30.213Z,25.41
2022-08-07T13:36:31.615Z,25.28
2022-08-07T13:39:12.946Z,25.17
2022-08-07T13:41:58.805Z,25.07
2022-08-07T13:44:34.245Z,25.10
2022-08-07T13:47:09.387Z,25.28
2022-08-07T13:50:34.067Z,25.48
2022-08-07T13:52:36.465Z,25.42
2022-08-07T13:55:13.200Z,25.52
2022-08-07T13:58:01.592Z,25.67
2022-08-07T14:00:39.698Z,25.72
2022-08-07T14:03:28.940Z,25.71
2022-08-07T14:06:14.486Z,25.80
2022-08-07T14:08:48.649Z,25.71
2022-08-07T14:11:23.856Z,25.73
2022-08-07T14:14:03.831Z,25.78
2022-08-07T14:16:38.094Z,25.56
2022-08-07T14:19:17.763Z,25.27
2022-08-07T14:22:12.420Z,25.29
2022-08-07T14:24:43.833Z,25.34
2022-08-07T14:28:09.214Z,25.50
2022-08-07T14:30:11.683Z,25.69
2022-08-07T14:32:45.682Z,25.76
2022-08-07T14:35:44.975Z,25.79
2022-08-07T14:38:26.536Z,25.80
2022-08-07T14:41:00.874Z,25.84
2022-08-07T14:43:57.076Z,25.69
2022-08-07T14:46:31.366Z,25.74
2022-08-07T14:52:03.116Z,25.72
2022-08-07T14:57:28.963Z,25.65
2022-08-07T15:00:20.728Z,25.67
2022-08-07T15:02:59.992Z,25.63
2022-08-07T15:05:30.346Z,25.57
2022-08-07T15:08:07.204Z,25.52
2022-08-07T15:10:58.848Z,25.50
2022-08-07T15:13:36.781Z,25.49
2022-08-07T15:16:11.440Z,25.40
2022-08-07T15:18:45.893Z,25.48
2022-08-07T15:21:58.540Z,25.49
2022-08-07T15:27:09.926Z,25.55
2022-08-07T15:32:39.500Z,25.55
2022-08-07T15:35:14.487Z,25.42
2022-08-07T15:38:04.515Z,25.35
2022-08-07T15:41:00.422Z,25.30
2022-08-07T15:43:53.741Z,25.21
2022-08-07T15:46:37.662Z,25.26
2022-08-07T15:52:01.995Z,25.37
2022-08-07T15:54:39.243Z,25.29
2022-08-07T15:57:27.924Z,25.25
2022-08-07T16:00:04.100Z,25.18
2022-08-07T16:02:46.836Z,25.24
2022-08-07T16:05:19.538Z,25.28
2022-08-07T16:08:32.608Z,25.31
2022-08-07T16:10:42.947Z,25.25
2022-08-07T16:14:00.231Z,25.20
2022-08-07T16:16:43.780Z,25.13
2022-08-07T16:19:59.825Z,25.05
2022-08-07T16:22:54.284Z,24.88
2022-08-07T16:25:54.491Z,24.84
2022-08-07T16:30:06.825Z,24.73
2022-08-07T16:31:50.233Z,24.70
2022-08-07T16:34:28.062Z,24.67
2022-08-07T16:38:06.342Z,24.61
2022-08-07T16:41:01.548Z,24.60
2022-08-07T16:44:05.577Z,24.60
2022-08-07T16:47:30.345Z,24.62
2022-08-07T16:50:35.214Z,24.58
2022-08-07T16:54:02.322Z,24.64
2022-08-07T16:56:19.565Z,24.68
2022-08-07T16:59:14.692Z,24.66
2022-08-07T17:01:53.846Z,24.53
2022-08-07T17:04:36.980Z,24.43
2022-08-07T17:07:51.577Z,24.43
2022-08-07T17:10:33.084Z,24.49
2022-08-07T17:13:08.378Z,24.57
2022-08-07T17:15:44.195Z,24.57
2022-08-07T17:18:19.210Z,24.57
2022-08-07T17:20:48.542Z,24.58
2022-08-07T17:23:41.630Z,24.53
2022-08-07T17:26:24.304Z,24.52
2022-08-07T17:29:18.322Z,24.49
2022-08-07T17:32:07.530Z,24.44
2022-08-07T17:35:40.591Z,24.47
2022-08-07T17:38:05.462Z,24.38
2022-08-07T17:40:50.696Z,24.38
2022-08-07T17:44:01.522Z,24.44
2022-08-07T17:46:20.957Z,24.44
2022-08-07T17:49:09.522Z,24.40
2022-08-07T17:51:59.835Z,24.36
2022-08-07T17:54:53.169Z,24.29
2022-08-07T17:57:59.069Z,24.26
2022-08-07T18:00:33.389Z,24.14
2022-08-07T18:03:19.188Z,24.13
2022-08-07T18:06:01.605Z,24.17
2022-08-07T18:08:35.029Z,24.15
2022-08-07T18:12:17.897Z,24.10
2022-08-07T18:14:05.716Z,23.99
2022-08-07T18:16:35.965Z,23.96
2022-08-07T18:21:03.599Z,23.94
2022-08-07T18:22:28.986Z,23.98
2022-08-07T18:25:01.709Z,23.99
2022-08-07T18:28:33.908Z,23.95
2022-08-07T18:31:18.610Z,23.79
2022-08-07T18:34:37.760Z,23.74
2022-08-07T18:37:15.153Z,23.73
2022-08-07T18:40:42.836Z,23.65
2022-08-07T18:43:14.954Z,23.58
2022-08-07T18:46:24.406Z,23.55
2022-08-07T18:50:31.424Z,23.48
2022-08-07T18:52:33.817Z,23.46
2022-08-07T18:54:44.152Z,23.41
2022-08-07T18:57:31.456Z,23.37
2022-08-07T19:00:32.924Z,23.30
2022-08-07T19:03:11.868Z,23.26
2022-08-07T19:06:03.079Z,23.22
2022-08-07T19:08:43.019Z,23.15
2022-08-07T19:11:35.609Z,23.07
2022-08-07T19:14:16.980Z,23.02
2022-08-07T19:17:07.046Z,22.97
2022-08-07T19:19:47.086Z,22.89
2022-08-07T19:22:30.588Z,22.84
2022-08-07T19:25:06.327Z,22.80
2022-08-07T19:30:53.558Z,22.78
2022-08-07T19:31:04.038Z,22.73
2022-08-07T19:33:35.002Z,22.67
2022-08-07T19:36:04.015Z,22.61
2022-08-07T19:38:36.255Z,22.57
2022-08-07T19:41:44.901Z,22.54
2022-08-07T19:44:22.112Z,22.47
2022-08-07T19:46:57.767Z,22.44
2022-08-07T19:49:57.048Z,22.40
2022-08-07T19:52:18.173Z,22.33
2022-08-07T19:54:56.204Z,22.27
2022-08-07T19:58:00.999Z,22.22
2022-08-07T20:00:28.307Z,22.18
2022-08-07T20:03:02.917Z,22.13
2022-08-07T20:05:59.768Z,22.07
2022-08-07T20:08:25.719Z,22.01
2022-08-07T20:11:02.149Z,21.93
2022-08-07T20:13:42.007Z,21.89
2022-08-07T20:16:15.762Z,21.80
2022-08-07T20:19:05.454Z,21.75
2022-08-07T20:21:42.245Z,21.74
2022-08-07T20:24:17.864Z,21.68
2022-08-07T20:26:54.502Z,21.64
2022-08-07T20:29:47.659Z,21.60
2022-08-07T20:32:22.374Z,21.55
2022-08-07T20:34:58.532Z,21.52
2022-08-07T20:37:37.159Z,21.48
2022-08-07T20:40:31.241Z,21.39
2022-08-07T20:43:14.462Z,21.36
2022-08-07T20:46:26.516Z,21.29
2022-08-07T20:48:39.434Z,21.26
2022-08-07T20:51:27.977Z,21.22
2022-08-07T20:54:03.140Z,21.17
2022-08-07T20:56:46.235Z,21.15
2022-08-07T21:00:05.260Z,21.08
2022-08-07T21:02:33.319Z,21.01
2022-08-07T21:05:04.693Z,20.97
2022-08-07T21:07:39.586Z,20.88
2022-08-07T21:10:11.641Z,20.85
2022-08-07T21:12:41.240Z,20.75
2022-08-07T21:15:18.747Z,20.69
2022-08-07T21:18:02.307Z,20.70
2022-08-07T21:20:40.554Z,20.60
2022-08-07T21:23:22.818Z,20.62
2022-08-07T21:26:04.865Z,20.62
2022-08-07T21:28:48.805Z,20.57
2022-08-07T21:31:49.360Z,20.56
2022-08-07T21:34:26.692Z,20.49
2022-08-07T21:37:03.895Z,20.44
2022-08-07T21:39:51.732Z,20.42
2022-08-07T21:42:42.902Z,20.36
2022-08-07T21:46:05.123Z,20.31
2022-08-07T21:48:28.818Z,20.30
2022-08-07T21:51:20.359Z,20.20
2022-08-07T21:53:55.925Z,20.19
2022-08-07T21:56:47.009Z,20.10
2022-08-07T21:59:36.220Z,19.95
2022-08-07T22:02:27.169Z,19.90
2022-08-07T22:04:59.865Z,19.88
2022-08-07T22:07:48.615Z,19.86
2022-08-07T22:10:24.637Z,19.90
2022-08-07T22:12:56.495Z,19.87
2022-08-07T22:16:38.768Z,19.83
2022-08-07T22:18:24.695Z,19.81
2022-08-07T22:20:58.702Z,19.77
2022-08-07T22:23:40.424Z,19.71
2022-08-07T22:26:16.007Z,19.69
2022-08-07T22:28:53.467Z,19.64
2022-08-07T22:31:59.177Z,19.66
2022-08-07T22:34:29.065Z,19.64
2022-08-07T22:37:12.936Z,19.57
2022-08-07T22:39:52.640Z,19.44
2022-08-07T22:42:25.942Z,19.39
2022-08-07T22:44:58.412Z,19.35
2022-08-07T22:47:42.953Z,19.35
2022-08-07T22:50:33.292Z,19.33
2022-08-07T22:54:06.717Z,19.35
2022-08-07T22:56:30.961Z,19.22
2022-08-07T22:59:50.243Z,19.18
2022-08-07T23:02:47.857Z,19.19
2022-08-07T23:06:14.486Z,19.17
2022-08-07T23:08:49.786Z,19.17
2022-08-07T23:11:44.277Z,19.12
2022-08-07T23:14:27.803Z,19.05
2022-08-07T23:17:26.525Z,19.05
2022-08-07T23:20:51.472Z,19.01
2022-08-07T23:24:05.208Z,18.97
2022-08-07T23:26:50.355Z,18.94
2022-08-07T23:30:39.455Z,18.93
2022-08-07T23:34:22.102Z,18.84
2022-08-07T23:35:40.321Z,18.74
2022-08-07T23:38:36.709Z,18.69
2022-08-07T23:41:33.052Z,18.61
2022-08-07T23:44:29.524Z,18.61
2022-08-07T23:47:27.938Z,18.54
2022-08-07T23:50:26.635Z,18.42
2022-08-07T23:53:06.480Z,18.37
2022-08-07T23:55:53.601Z,18.37
2022-08-07T23:58:30.362Z,18.35
